KHTL/HTL METAR and TAF weather

Enter ICAO airport designator
Station Type Date Time Source
KHTL METAR 2020/02/25 10:53 UTC NOAA

KHTL 251053Z AUTO 05008KT 10SM OVC009 M03/M05 A2995 RMK AO2 SLP157 T10281050


Station Type Date Time Source
KHTL Decoded METAR 2020/02/25 10:53 UTC NOAA

ROSCOMMON COUNTY AIRPORT, MI, United States (KHTL) 44-21N 084-40W 351M
Feb 25, 2020 - 05:53 AM EST / 2020.02.25 1053 UTC
Wind: from the NE (050 degrees) at 9 MPH (8 KT):0
Visibility: 10 mile(s):0
Sky conditions: overcast
Temperature: 27.0 F (-2.8 C)
Windchill: 17 F (-8 C):1
Dew Point: 23.0 F (-5.0 C)
Relative Humidity: 84%
Pressure (altimeter): 29.95 in. Hg (1014 hPa)
ob: KHTL 251053Z AUTO 05008KT 10SM OVC009 M03/M05 A2995 RMK AO2 SLP157 T10281050
cycle: 11

Station Type Date Time Source
KHTL TAF UTC NOAA

Error!

Example: see airport list